sensor_id;sensor_type;location;lat;lon;timestamp;P1;durP1;ratioP1;P2;durP2;ratioP2
38332;SDS011;25748;46.670;14.272;2022-10-16T00:00:18;31.42;;;12.98;;
38332;SDS011;25748;46.670;14.272;2022-10-16T00:02:44;32.78;;;15.07;;
38332;SDS011;25748;46.670;14.272;2022-10-16T00:05:10;32.95;;;15.13;;
38332;SDS011;25748;46.670;14.272;2022-10-16T00:07:35;36.63;;;14.13;;
38332;SDS011;25748;46.670;14.272;2022-10-16T00:10:01;32.10;;;13.50;;
38332;SDS011;25748;46.670;14.272;2022-10-16T00:12:27;31.63;;;12.90;;
38332;SDS011;25748;46.670;14.272;2022-10-16T00:14:52;30.52;;;12.73;;
38332;SDS011;25748;46.670;14.272;2022-10-16T00:17:18;33.22;;;13.35;;
38332;SDS011;25748;46.670;14.272;2022-10-16T00:19:44;37.92;;;14.77;;
38332;SDS011;25748;46.670;14.272;2022-10-16T00:22:09;32.67;;;13.07;;
38332;SDS011;25748;46.670;14.272;2022-10-16T00:24:36;32.38;;;13.00;;
38332;SDS011;25748;46.670;14.272;2022-10-16T00:27:01;34.08;;;13.50;;
38332;SDS011;25748;46.670;14.272;2022-10-16T00:29:27;35.05;;;13.10;;
38332;SDS011;25748;46.670;14.272;2022-10-16T00:31:53;31.33;;;12.60;;
38332;SDS011;25748;46.670;14.272;2022-10-16T00:34:18;34.42;;;13.25;;
38332;SDS011;25748;46.670;14.272;2022-10-16T00:36:44;34.92;;;14.00;;
38332;SDS011;25748;46.670;14.272;2022-10-16T00:39:10;36.95;;;13.45;;
38332;SDS011;25748;46.670;14.272;2022-10-16T00:41:35;29.17;;;13.00;;
38332;SDS011;25748;46.670;14.272;2022-10-16T00:44:40;29.85;;;11.90;;
38332;SDS011;25748;46.670;14.272;2022-10-16T00:47:09;36.38;;;13.48;;
38332;SDS011;25748;46.670;14.272;2022-10-16T00:49:37;29.00;;;13.30;;
38332;SDS011;25748;46.670;14.272;2022-10-16T00:52:03;26.20;;;11.20;;
38332;SDS011;25748;46.670;14.272;2022-10-16T00:54:31;35.67;;;12.98;;
38332;SDS011;25748;46.670;14.272;2022-10-16T00:57:01;24.73;;;11.80;;
38332;SDS011;25748;46.670;14.272;2022-10-16T00:59:31;29.05;;;11.30;;
38332;SDS011;25748;46.670;14.272;2022-10-16T01:02:04;34.78;;;13.05;;
38332;SDS011;25748;46.670;14.272;2022-10-16T01:04:32;30.10;;;12.93;;
38332;SDS011;25748;46.670;14.272;2022-10-16T01:09:37;32.95;;;13.48;;
38332;SDS011;25748;46.670;14.272;2022-10-16T01:22:24;35.13;;;12.80;;
38332;SDS011;25748;46.670;14.272;2022-10-16T01:24:53;30.13;;;12.88;;
38332;SDS011;25748;46.670;14.272;2022-10-16T01:27:30;30.73;;;12.85;;
38332;SDS011;25748;46.670;14.272;2022-10-16T01:32:39;40.30;;;12.90;;
38332;SDS011;25748;46.670;14.272;2022-10-16T01:35:18;31.33;;;11.88;;
38332;SDS011;25748;46.670;14.272;2022-10-16T01:40:39;31.98;;;12.90;;
38332;SDS011;25748;46.670;14.272;2022-10-16T01:43:11;34.67;;;13.73;;
38332;SDS011;25748;46.670;14.272;2022-10-16T01:45:40;32.38;;;12.77;;
38332;SDS011;25748;46.670;14.272;2022-10-16T01:48:09;31.40;;;12.98;;
38332;SDS011;25748;46.670;14.272;2022-10-16T01:50:41;31.08;;;11.48;;
38332;SDS011;25748;46.670;14.272;2022-10-16T01:53:10;30.88;;;13.23;;
38332;SDS011;25748;46.670;14.272;2022-10-16T01:55:39;27.10;;;12.75;;
38332;SDS011;25748;46.670;14.272;2022-10-16T01:58:10;38.35;;;14.13;;
38332;SDS011;25748;46.670;14.272;2022-10-16T02:00:39;40.20;;;15.23;;
38332;SDS011;25748;46.670;14.272;2022-10-16T02:03:08;36.28;;;14.85;;
38332;SDS011;25748;46.670;14.272;2022-10-16T02:05:41;36.67;;;14.45;;
38332;SDS011;25748;46.670;14.272;2022-10-16T02:08:08;36.83;;;14.93;;
38332;SDS011;25748;46.670;14.272;2022-10-16T02:10:34;36.10;;;14.13;;
38332;SDS011;25748;46.670;14.272;2022-10-16T02:13:12;36.05;;;13.77;;
38332;SDS011;25748;46.670;14.272;2022-10-16T02:15:44;36.05;;;13.57;;
38332;SDS011;25748;46.670;14.272;2022-10-16T02:18:09;31.77;;;13.40;;
38332;SDS011;25748;46.670;14.272;2022-10-16T02:20:37;39.25;;;13.30;;
38332;SDS011;25748;46.670;14.272;2022-10-16T02:26:21;30.45;;;12.52;;
38332;SDS011;25748;46.670;14.272;2022-10-16T02:28:54;48.05;;;14.15;;
38332;SDS011;25748;46.670;14.272;2022-10-16T02:31:28;36.40;;;14.77;;
38332;SDS011;25748;46.670;14.272;2022-10-16T02:33:59;38.33;;;13.90;;
38332;SDS011;25748;46.670;14.272;2022-10-16T02:36:30;28.00;;;12.70;;
38332;SDS011;25748;46.670;14.272;2022-10-16T02:38:57;40.22;;;15.77;;
38332;SDS011;25748;46.670;14.272;2022-10-16T02:41:25;31.83;;;12.73;;
38332;SDS011;25748;46.670;14.272;2022-10-16T02:43:51;39.55;;;13.50;;
38332;SDS011;25748;46.670;14.272;2022-10-16T02:46:17;42.80;;;13.88;;
38332;SDS011;25748;46.670;14.272;2022-10-16T02:48:43;99.15;;;17.30;;
38332;SDS011;25748;46.670;14.272;2022-10-16T02:51:09;73.28;;;14.75;;
38332;SDS011;25748;46.670;14.272;2022-10-16T02:53:35;68.10;;;15.07;;
38332;SDS011;25748;46.670;14.272;2022-10-16T02:56:01;78.15;;;17.17;;
38332;SDS011;25748;46.670;14.272;2022-10-16T02:58:26;96.18;;;15.82;;
38332;SDS011;25748;46.670;14.272;2022-10-16T03:00:52;89.57;;;16.40;;
38332;SDS011;25748;46.670;14.272;2022-10-16T03:03:18;110.38;;;17.08;;
38332;SDS011;25748;46.670;14.272;2022-10-16T03:05:43;68.10;;;14.73;;
38332;SDS011;25748;46.670;14.272;2022-10-16T03:08:11;69.03;;;15.25;;
38332;SDS011;25748;46.670;14.272;2022-10-16T03:10:37;62.95;;;14.27;;
38332;SDS011;25748;46.670;14.272;2022-10-16T03:13:02;68.38;;;14.85;;
38332;SDS011;25748;46.670;14.272;2022-10-16T03:15:28;44.38;;;13.98;;
38332;SDS011;25748;46.670;14.272;2022-10-16T03:17:54;45.40;;;14.18;;
38332;SDS011;25748;46.670;14.272;2022-10-16T03:20:22;42.80;;;13.50;;
38332;SDS011;25748;46.670;14.272;2022-10-16T03:22:48;106.70;;;16.17;;
38332;SDS011;25748;46.670;14.272;2022-10-16T03:25:14;89.53;;;16.33;;
38332;SDS011;25748;46.670;14.272;2022-10-16T03:27:39;60.28;;;15.32;;
38332;SDS011;25748;46.670;14.272;2022-10-16T03:30:05;39.53;;;12.57;;
38332;SDS011;25748;46.670;14.272;2022-10-16T03:32:31;42.10;;;13.63;;
38332;SDS011;25748;46.670;14.272;2022-10-16T03:34:57;39.05;;;13.52;;
38332;SDS011;25748;46.670;14.272;2022-10-16T03:37:23;36.65;;;13.55;;
38332;SDS011;25748;46.670;14.272;2022-10-16T03:39:48;50.78;;;15.73;;
38332;SDS011;25748;46.670;14.272;2022-10-16T03:42:14;34.83;;;12.57;;
38332;SDS011;25748;46.670;14.272;2022-10-16T03:44:40;33.83;;;13.43;;
38332;SDS011;25748;46.670;14.272;2022-10-16T03:47:05;37.08;;;14.25;;
38332;SDS011;25748;46.670;14.272;2022-10-16T03:49:31;30.63;;;13.95;;
38332;SDS011;25748;46.670;14.272;2022-10-16T03:51:57;29.90;;;12.60;;
38332;SDS011;25748;46.670;14.272;2022-10-16T03:54:22;33.45;;;14.32;;
38332;SDS011;25748;46.670;14.272;2022-10-16T03:56:48;34.60;;;13.10;;
38332;SDS011;25748;46.670;14.272;2022-10-16T03:59:14;38.97;;;12.75;;
38332;SDS011;25748;46.670;14.272;2022-10-16T04:01:39;26.45;;;12.07;;
38332;SDS011;25748;46.670;14.272;2022-10-16T04:04:05;37.38;;;12.18;;
38332;SDS011;25748;46.670;14.272;2022-10-16T04:06:31;52.92;;;13.68;;
38332;SDS011;25748;46.670;14.272;2022-10-16T04:08:56;39.38;;;13.43;;
38332;SDS011;25748;46.670;14.272;2022-10-16T04:11:22;38.17;;;12.82;;
38332;SDS011;25748;46.670;14.272;2022-10-16T04:13:48;49.47;;;14.60;;
38332;SDS011;25748;46.670;14.272;2022-10-16T04:16:13;61.13;;;14.20;;
38332;SDS011;25748;46.670;14.272;2022-10-16T04:18:39;36.85;;;13.05;;
38332;SDS011;25748;46.670;14.272;2022-10-16T04:21:05;32.90;;;13.65;;
38332;SDS011;25748;46.670;14.272;2022-10-16T04:23:31;43.33;;;14.63;;
38332;SDS011;25748;46.670;14.272;2022-10-16T04:25:58;57.03;;;13.90;;
38332;SDS011;25748;46.670;14.272;2022-10-16T04:28:24;37.63;;;12.95;;
38332;SDS011;25748;46.670;14.272;2022-10-16T04:30:49;41.65;;;14.13;;
38332;SDS011;25748;46.670;14.272;2022-10-16T04:33:15;47.33;;;13.48;;
38332;SDS011;25748;46.670;14.272;2022-10-16T04:35:41;42.53;;;14.10;;
38332;SDS011;25748;46.670;14.272;2022-10-16T04:38:07;38.20;;;13.85;;
38332;SDS011;25748;46.670;14.272;2022-10-16T04:40:33;31.55;;;11.13;;
38332;SDS011;25748;46.670;14.272;2022-10-16T04:43:01;43.80;;;14.02;;
38332;SDS011;25748;46.670;14.272;2022-10-16T04:45:27;44.30;;;13.98;;
38332;SDS011;25748;46.670;14.272;2022-10-16T04:47:56;59.50;;;14.15;;
38332;SDS011;25748;46.670;14.272;2022-10-16T04:50:23;55.45;;;14.38;;
38332;SDS011;25748;46.670;14.272;2022-10-16T04:52:48;85.47;;;15.07;;
38332;SDS011;25748;46.670;14.272;2022-10-16T04:55:14;39.38;;;13.82;;
38332;SDS011;25748;46.670;14.272;2022-10-16T04:57:40;42.40;;;14.55;;
38332;SDS011;25748;46.670;14.272;2022-10-16T05:00:06;83.55;;;14.85;;
38332;SDS011;25748;46.670;14.272;2022-10-16T05:02:33;92.30;;;15.20;;
38332;SDS011;25748;46.670;14.272;2022-10-16T05:04:58;58.63;;;14.38;;
38332;SDS011;25748;46.670;14.272;2022-10-16T05:07:24;56.22;;;15.02;;
38332;SDS011;25748;46.670;14.272;2022-10-16T05:09:50;52.33;;;15.15;;
38332;SDS011;25748;46.670;14.272;2022-10-16T05:12:16;44.42;;;13.13;;
38332;SDS011;25748;46.670;14.272;2022-10-16T05:14:42;36.47;;;13.63;;
38332;SDS011;25748;46.670;14.272;2022-10-16T05:17:07;41.95;;;13.35;;
38332;SDS011;25748;46.670;14.272;2022-10-16T05:19:33;48.17;;;13.75;;
38332;SDS011;25748;46.670;14.272;2022-10-16T05:21:59;51.25;;;13.25;;
38332;SDS011;25748;46.670;14.272;2022-10-16T05:24:25;40.45;;;13.77;;
38332;SDS011;25748;46.670;14.272;2022-10-16T05:26:50;63.75;;;15.20;;
38332;SDS011;25748;46.670;14.272;2022-10-16T05:29:16;41.40;;;13.43;;
38332;SDS011;25748;46.670;14.272;2022-10-16T05:31:42;72.53;;;14.48;;
38332;SDS011;25748;46.670;14.272;2022-10-16T05:34:08;48.85;;;13.02;;
38332;SDS011;25748;46.670;14.272;2022-10-16T05:36:33;56.72;;;14.50;;
38332;SDS011;25748;46.670;14.272;2022-10-16T05:38:59;37.17;;;11.73;;
38332;SDS011;25748;46.670;14.272;2022-10-16T05:41:25;52.65;;;14.15;;
38332;SDS011;25748;46.670;14.272;2022-10-16T05:43:51;49.63;;;13.98;;
38332;SDS011;25748;46.670;14.272;2022-10-16T05:46:17;63.88;;;14.40;;
38332;SDS011;25748;46.670;14.272;2022-10-16T05:48:43;52.60;;;13.60;;
38332;SDS011;25748;46.670;14.272;2022-10-16T05:51:10;57.03;;;14.18;;
38332;SDS011;25748;46.670;14.272;2022-10-16T05:53:38;38.45;;;13.80;;
38332;SDS011;25748;46.670;14.272;2022-10-16T05:56:05;48.00;;;13.77;;
38332;SDS011;25748;46.670;14.272;2022-10-16T05:58:34;53.13;;;14.23;;
38332;SDS011;25748;46.670;14.272;2022-10-16T06:01:06;57.03;;;15.68;;
38332;SDS011;25748;46.670;14.272;2022-10-16T06:03:34;51.50;;;13.90;;
38332;SDS011;25748;46.670;14.272;2022-10-16T06:06:22;56.78;;;14.75;;
38332;SDS011;25748;46.670;14.272;2022-10-16T06:08:48;65.72;;;14.35;;
38332;SDS011;25748;46.670;14.272;2022-10-16T06:11:18;53.40;;;13.77;;
38332;SDS011;25748;46.670;14.272;2022-10-16T06:13:48;36.50;;;13.63;;
38332;SDS011;25748;46.670;14.272;2022-10-16T06:16:15;54.38;;;14.30;;
38332;SDS011;25748;46.670;14.272;2022-10-16T06:18:40;68.20;;;14.93;;
38332;SDS011;25748;46.670;14.272;2022-10-16T06:21:10;47.17;;;14.43;;
38332;SDS011;25748;46.670;14.272;2022-10-16T06:23:41;54.60;;;13.85;;
38332;SDS011;25748;46.670;14.272;2022-10-16T06:26:10;77.53;;;14.73;;
38332;SDS011;25748;46.670;14.272;2022-10-16T06:28:38;69.65;;;15.27;;
38332;SDS011;25748;46.670;14.272;2022-10-16T06:31:05;56.97;;;15.25;;
38332;SDS011;25748;46.670;14.272;2022-10-16T06:33:32;84.93;;;15.75;;
38332;SDS011;25748;46.670;14.272;2022-10-16T06:36:04;77.53;;;15.07;;
38332;SDS011;25748;46.670;14.272;2022-10-16T06:38:35;56.95;;;13.48;;
38332;SDS011;25748;46.670;14.272;2022-10-16T06:41:01;50.38;;;14.10;;
38332;SDS011;25748;46.670;14.272;2022-10-16T06:43:31;47.40;;;13.98;;
38332;SDS011;25748;46.670;14.272;2022-10-16T06:45:57;37.03;;;12.98;;
38332;SDS011;25748;46.670;14.272;2022-10-16T06:48:24;56.45;;;13.15;;
38332;SDS011;25748;46.670;14.272;2022-10-16T06:53:27;50.53;;;13.75;;
38332;SDS011;25748;46.670;14.272;2022-10-16T06:55:54;40.40;;;13.50;;
38332;SDS011;25748;46.670;14.272;2022-10-16T06:58:21;62.60;;;14.43;;
38332;SDS011;25748;46.670;14.272;2022-10-16T07:00:46;42.72;;;14.57;;
38332;SDS011;25748;46.670;14.272;2022-10-16T07:03:12;81.60;;;14.60;;
38332;SDS011;25748;46.670;14.272;2022-10-16T07:05:39;66.32;;;15.30;;
38332;SDS011;25748;46.670;14.272;2022-10-16T07:08:06;55.20;;;14.38;;
38332;SDS011;25748;46.670;14.272;2022-10-16T07:10:32;70.10;;;13.88;;
38332;SDS011;25748;46.670;14.272;2022-10-16T07:13:00;47.40;;;13.63;;
38332;SDS011;25748;46.670;14.272;2022-10-16T07:15:26;59.50;;;14.30;;
38332;SDS011;25748;46.670;14.272;2022-10-16T07:17:52;47.58;;;14.52;;
38332;SDS011;25748;46.670;14.272;2022-10-16T07:20:17;48.55;;;16.23;;
38332;SDS011;25748;46.670;14.272;2022-10-16T07:22:43;65.30;;;15.07;;
38332;SDS011;25748;46.670;14.272;2022-10-16T07:25:10;77.03;;;15.45;;
38332;SDS011;25748;46.670;14.272;2022-10-16T07:27:38;43.78;;;12.25;;
38332;SDS011;25748;46.670;14.272;2022-10-16T07:30:05;40.10;;;15.07;;
38332;SDS011;25748;46.670;14.272;2022-10-16T07:32:34;34.42;;;12.70;;
38332;SDS011;25748;46.670;14.272;2022-10-16T07:35:00;31.42;;;12.90;;
38332;SDS011;25748;46.670;14.272;2022-10-16T07:37:25;46.00;;;14.02;;
38332;SDS011;25748;46.670;14.272;2022-10-16T07:39:51;57.50;;;13.50;;
38332;SDS011;25748;46.670;14.272;2022-10-16T07:42:17;23.67;;;10.82;;
38332;SDS011;25748;46.670;14.272;2022-10-16T07:44:42;32.70;;;13.32;;
38332;SDS011;25748;46.670;14.272;2022-10-16T07:47:08;32.05;;;12.90;;
38332;SDS011;25748;46.670;14.272;2022-10-16T07:49:38;29.75;;;11.45;;
38332;SDS011;25748;46.670;14.272;2022-10-16T07:52:03;30.77;;;14.15;;
38332;SDS011;25748;46.670;14.272;2022-10-16T07:54:29;30.30;;;11.80;;
38332;SDS011;25748;46.670;14.272;2022-10-16T07:56:54;34.92;;;12.40;;
38332;SDS011;25748;46.670;14.272;2022-10-16T07:59:21;26.05;;;11.75;;
38332;SDS011;25748;46.670;14.272;2022-10-16T08:01:48;31.08;;;13.13;;
38332;SDS011;25748;46.670;14.272;2022-10-16T08:04:14;30.65;;;11.70;;
38332;SDS011;25748;46.670;14.272;2022-10-16T08:06:40;29.35;;;11.45;;
38332;SDS011;25748;46.670;14.272;2022-10-16T08:09:06;30.83;;;11.48;;
38332;SDS011;25748;46.670;14.272;2022-10-16T08:11:33;28.38;;;12.25;;
38332;SDS011;25748;46.670;14.272;2022-10-16T08:13:59;28.10;;;12.68;;
38332;SDS011;25748;46.670;14.272;2022-10-16T08:16:25;26.60;;;12.40;;
38332;SDS011;25748;46.670;14.272;2022-10-16T08:18:51;25.27;;;11.50;;
38332;SDS011;25748;46.670;14.272;2022-10-16T08:21:17;28.42;;;12.63;;
38332;SDS011;25748;46.670;14.272;2022-10-16T08:23:45;17.42;;;9.18;;
38332;SDS011;25748;46.670;14.272;2022-10-16T08:26:12;19.60;;;9.02;;
38332;SDS011;25748;46.670;14.272;2022-10-16T08:28:38;22.63;;;10.38;;
38332;SDS011;25748;46.670;14.272;2022-10-16T08:31:04;19.92;;;10.30;;
38332;SDS011;25748;46.670;14.272;2022-10-16T08:33:35;26.92;;;11.52;;
38332;SDS011;25748;46.670;14.272;2022-10-16T08:36:01;29.45;;;11.48;;
38332;SDS011;25748;46.670;14.272;2022-10-16T08:38:28;19.98;;;10.43;;
38332;SDS011;25748;46.670;14.272;2022-10-16T08:40:55;24.85;;;11.55;;
38332;SDS011;25748;46.670;14.272;2022-10-16T08:46:28;28.35;;;11.65;;
38332;SDS011;25748;46.670;14.272;2022-10-16T08:49:01;24.58;;;10.70;;
38332;SDS011;25748;46.670;14.272;2022-10-16T08:51:32;26.02;;;10.30;;
38332;SDS011;25748;46.670;14.272;2022-10-16T08:56:32;21.65;;;10.00;;
38332;SDS011;25748;46.670;14.272;2022-10-16T08:58:58;21.58;;;9.85;;
38332;SDS011;25748;46.670;14.272;2022-10-16T09:01:25;20.58;;;10.00;;
38332;SDS011;25748;46.670;14.272;2022-10-16T09:15:01;26.02;;;10.73;;
38332;SDS011;25748;46.670;14.272;2022-10-16T09:23:14;22.10;;;9.55;;
38332;SDS011;25748;46.670;14.272;2022-10-16T09:25:49;19.27;;;9.80;;
38332;SDS011;25748;46.670;14.272;2022-10-16T09:28:16;21.20;;;10.60;;
38332;SDS011;25748;46.670;14.272;2022-10-16T09:30:42;20.33;;;9.90;;
38332;SDS011;25748;46.670;14.272;2022-10-16T09:33:10;21.13;;;10.65;;
38332;SDS011;25748;46.670;14.272;2022-10-16T09:35:42;22.83;;;10.95;;
38332;SDS011;25748;46.670;14.272;2022-10-16T09:38:22;27.63;;;11.10;;
38332;SDS011;25748;46.670;14.272;2022-10-16T09:40:53;19.02;;;10.00;;
38332;SDS011;25748;46.670;14.272;2022-10-16T09:43:28;19.83;;;9.60;;
38332;SDS011;25748;46.670;14.272;2022-10-16T09:46:05;17.60;;;8.43;;
38332;SDS011;25748;46.670;14.272;2022-10-16T09:48:37;19.35;;;9.85;;
38332;SDS011;25748;46.670;14.272;2022-10-16T09:51:04;25.25;;;9.68;;
38332;SDS011;25748;46.670;14.272;2022-10-16T09:53:44;16.45;;;8.52;;
38332;SDS011;25748;46.670;14.272;2022-10-16T09:56:11;21.58;;;10.23;;
38332;SDS011;25748;46.670;14.272;2022-10-16T09:58:54;20.20;;;9.57;;
38332;SDS011;25748;46.670;14.272;2022-10-16T10:01:27;27.60;;;10.55;;
38332;SDS011;25748;46.670;14.272;2022-10-16T10:06:33;20.42;;;8.60;;
38332;SDS011;25748;46.670;14.272;2022-10-16T10:11:57;26.27;;;10.13;;
38332;SDS011;25748;46.670;14.272;2022-10-16T10:19:52;19.98;;;10.02;;
38332;SDS011;25748;46.670;14.272;2022-10-16T10:30:25;17.08;;;9.10;;
38332;SDS011;25748;46.670;14.272;2022-10-16T10:45:52;18.90;;;9.55;;
38332;SDS011;25748;46.670;14.272;2022-10-16T10:48:27;21.08;;;10.20;;
38332;SDS011;25748;46.670;14.272;2022-10-16T10:51:04;19.50;;;9.70;;
38332;SDS011;25748;46.670;14.272;2022-10-16T10:53:47;22.42;;;10.00;;
38332;SDS011;25748;46.670;14.272;2022-10-16T10:57:02;26.33;;;10.02;;
38332;SDS011;25748;46.670;14.272;2022-10-16T10:59:32;18.52;;;9.32;;
38332;SDS011;25748;46.670;14.272;2022-10-16T11:07:51;18.17;;;8.82;;
38332;SDS011;25748;46.670;14.272;2022-10-16T11:15:57;16.58;;;7.85;;
38332;SDS011;25748;46.670;14.272;2022-10-16T11:19:09;16.33;;;8.63;;
38332;SDS011;25748;46.670;14.272;2022-10-16T11:21:35;18.23;;;7.90;;
38332;SDS011;25748;46.670;14.272;2022-10-16T11:27:23;17.42;;;8.35;;
38332;SDS011;25748;46.670;14.272;2022-10-16T11:30:18;19.85;;;8.60;;
38332;SDS011;25748;46.670;14.272;2022-10-16T11:32:50;18.92;;;7.95;;
38332;SDS011;25748;46.670;14.272;2022-10-16T11:35:41;16.83;;;7.95;;
38332;SDS011;25748;46.670;14.272;2022-10-16T11:40:50;12.95;;;7.85;;
38332;SDS011;25748;46.670;14.272;2022-10-16T11:45:55;19.52;;;9.30;;
38332;SDS011;25748;46.670;14.272;2022-10-16T11:50:58;12.73;;;6.53;;
38332;SDS011;25748;46.670;14.272;2022-10-16T11:56:43;15.07;;;8.13;;
38332;SDS011;25748;46.670;14.272;2022-10-16T11:59:24;14.20;;;6.63;;
38332;SDS011;25748;46.670;14.272;2022-10-16T12:01:53;16.15;;;7.95;;
38332;SDS011;25748;46.670;14.272;2022-10-16T12:04:43;15.40;;;9.05;;
38332;SDS011;25748;46.670;14.272;2022-10-16T12:07:14;15.45;;;8.55;;
38332;SDS011;25748;46.670;14.272;2022-10-16T12:09:43;13.30;;;8.15;;
38332;SDS011;25748;46.670;14.272;2022-10-16T12:15:24;12.23;;;6.70;;
38332;SDS011;25748;46.670;14.272;2022-10-16T12:17:52;15.20;;;7.80;;
38332;SDS011;25748;46.670;14.272;2022-10-16T12:20:20;15.68;;;8.35;;
38332;SDS011;25748;46.670;14.272;2022-10-16T12:22:58;13.15;;;8.40;;
38332;SDS011;25748;46.670;14.272;2022-10-16T12:25:32;14.57;;;8.30;;
38332;SDS011;25748;46.670;14.272;2022-10-16T12:28:04;14.07;;;7.80;;
38332;SDS011;25748;46.670;14.272;2022-10-16T12:30:32;15.55;;;8.60;;
38332;SDS011;25748;46.670;14.272;2022-10-16T12:33:04;17.17;;;8.80;;
38332;SDS011;25748;46.670;14.272;2022-10-16T12:35:33;16.02;;;8.00;;
38332;SDS011;25748;46.670;14.272;2022-10-16T12:38:04;17.77;;;8.50;;
38332;SDS011;25748;46.670;14.272;2022-10-16T12:40:58;13.35;;;8.02;;
38332;SDS011;25748;46.670;14.272;2022-10-16T12:48:34;16.85;;;8.45;;
38332;SDS011;25748;46.670;14.272;2022-10-16T12:51:11;14.48;;;8.55;;
38332;SDS011;25748;46.670;14.272;2022-10-16T12:53:46;21.92;;;8.13;;
38332;SDS011;25748;46.670;14.272;2022-10-16T13:16:24;17.70;;;7.53;;
38332;SDS011;25748;46.670;14.272;2022-10-16T13:19:24;16.10;;;7.82;;
38332;SDS011;25748;46.670;14.272;2022-10-16T13:32:43;15.65;;;7.85;;
38332;SDS011;25748;46.670;14.272;2022-10-16T13:35:23;14.20;;;8.38;;
38332;SDS011;25748;46.670;14.272;2022-10-16T13:38:12;13.65;;;7.57;;
38332;SDS011;25748;46.670;14.272;2022-10-16T13:43:39;12.85;;;7.35;;
38332;SDS011;25748;46.670;14.272;2022-10-16T13:46:13;13.70;;;6.95;;
38332;SDS011;25748;46.670;14.272;2022-10-16T13:48:41;13.00;;;7.22;;
38332;SDS011;25748;46.670;14.272;2022-10-16T13:56:06;11.05;;;6.95;;
38332;SDS011;25748;46.670;14.272;2022-10-16T13:58:35;17.52;;;6.78;;
38332;SDS011;25748;46.670;14.272;2022-10-16T14:01:02;12.68;;;6.90;;
38332;SDS011;25748;46.670;14.272;2022-10-16T14:03:33;13.38;;;7.10;;
38332;SDS011;25748;46.670;14.272;2022-10-16T14:06:01;13.55;;;6.90;;
38332;SDS011;25748;46.670;14.272;2022-10-16T14:08:31;10.93;;;6.10;;
38332;SDS011;25748;46.670;14.272;2022-10-16T14:10:58;12.15;;;6.22;;
38332;SDS011;25748;46.670;14.272;2022-10-16T14:13:30;15.02;;;6.93;;
38332;SDS011;25748;46.670;14.272;2022-10-16T14:16:05;15.35;;;7.18;;
38332;SDS011;25748;46.670;14.272;2022-10-16T14:18:34;10.73;;;6.30;;
38332;SDS011;25748;46.670;14.272;2022-10-16T14:21:03;12.30;;;7.20;;
38332;SDS011;25748;46.670;14.272;2022-10-16T14:23:37;14.68;;;7.53;;
38332;SDS011;25748;46.670;14.272;2022-10-16T14:28:32;15.80;;;7.25;;
38332;SDS011;25748;46.670;14.272;2022-10-16T14:33:44;12.88;;;6.35;;
38332;SDS011;25748;46.670;14.272;2022-10-16T14:38:36;11.13;;;6.65;;
38332;SDS011;25748;46.670;14.272;2022-10-16T14:41:05;13.50;;;6.30;;
38332;SDS011;25748;46.670;14.272;2022-10-16T14:43:42;16.13;;;6.82;;
38332;SDS011;25748;46.670;14.272;2022-10-16T14:46:12;11.02;;;6.55;;
38332;SDS011;25748;46.670;14.272;2022-10-16T14:48:58;12.07;;;6.68;;
38332;SDS011;25748;46.670;14.272;2022-10-16T14:51:35;12.90;;;7.35;;
38332;SDS011;25748;46.670;14.272;2022-10-16T14:54:03;13.35;;;6.35;;
38332;SDS011;25748;46.670;14.272;2022-10-16T14:56:42;11.70;;;6.15;;
38332;SDS011;25748;46.670;14.272;2022-10-16T14:59:14;16.38;;;7.00;;
38332;SDS011;25748;46.670;14.272;2022-10-16T15:01:46;11.18;;;6.38;;
38332;SDS011;25748;46.670;14.272;2022-10-16T15:04:12;7.95;;;5.18;;
38332;SDS011;25748;46.670;14.272;2022-10-16T15:06:39;12.23;;;6.38;;
38332;SDS011;25748;46.670;14.272;2022-10-16T15:09:04;12.90;;;6.20;;
38332;SDS011;25748;46.670;14.272;2022-10-16T15:11:31;12.02;;;6.57;;
38332;SDS011;25748;46.670;14.272;2022-10-16T15:13:57;12.65;;;6.57;;
38332;SDS011;25748;46.670;14.272;2022-10-16T15:16:23;11.88;;;6.50;;
38332;SDS011;25748;46.670;14.272;2022-10-16T15:18:49;13.05;;;7.03;;
38332;SDS011;25748;46.670;14.272;2022-10-16T15:21:25;16.85;;;6.68;;
38332;SDS011;25748;46.670;14.272;2022-10-16T15:23:53;11.32;;;6.97;;
38332;SDS011;25748;46.670;14.272;2022-10-16T15:26:18;11.43;;;6.25;;
38332;SDS011;25748;46.670;14.272;2022-10-16T15:28:44;12.48;;;6.97;;
38332;SDS011;25748;46.670;14.272;2022-10-16T15:31:13;14.25;;;7.15;;
38332;SDS011;25748;46.670;14.272;2022-10-16T15:33:38;12.60;;;6.70;;
38332;SDS011;25748;46.670;14.272;2022-10-16T15:36:04;14.60;;;7.18;;
38332;SDS011;25748;46.670;14.272;2022-10-16T15:38:30;14.35;;;6.72;;
38332;SDS011;25748;46.670;14.272;2022-10-16T15:40:56;19.60;;;6.47;;
38332;SDS011;25748;46.670;14.272;2022-10-16T15:43:22;15.45;;;6.93;;
38332;SDS011;25748;46.670;14.272;2022-10-16T15:45:59;12.48;;;6.68;;
38332;SDS011;25748;46.670;14.272;2022-10-16T15:48:30;12.85;;;6.47;;
38332;SDS011;25748;46.670;14.272;2022-10-16T15:50:57;17.83;;;7.10;;
38332;SDS011;25748;46.670;14.272;2022-10-16T15:53:23;16.67;;;7.60;;
38332;SDS011;25748;46.670;14.272;2022-10-16T15:55:49;13.48;;;7.15;;
38332;SDS011;25748;46.670;14.272;2022-10-16T15:58:16;14.07;;;7.32;;
38332;SDS011;25748;46.670;14.272;2022-10-16T16:00:58;14.88;;;7.78;;
38332;SDS011;25748;46.670;14.272;2022-10-16T16:03:32;17.20;;;7.53;;
38332;SDS011;25748;46.670;14.272;2022-10-16T16:06:08;15.35;;;6.80;;
38332;SDS011;25748;46.670;14.272;2022-10-16T16:08:41;17.65;;;7.53;;
38332;SDS011;25748;46.670;14.272;2022-10-16T16:11:13;14.07;;;6.63;;
38332;SDS011;25748;46.670;14.272;2022-10-16T16:13:40;12.73;;;7.07;;
38332;SDS011;25748;46.670;14.272;2022-10-16T16:16:07;18.83;;;7.07;;
38332;SDS011;25748;46.670;14.272;2022-10-16T16:18:34;13.73;;;7.25;;
38332;SDS011;25748;46.670;14.272;2022-10-16T16:21:00;15.02;;;7.70;;
38332;SDS011;25748;46.670;14.272;2022-10-16T16:23:26;14.20;;;7.60;;
38332;SDS011;25748;46.670;14.272;2022-10-16T16:26:26;15.80;;;7.18;;
38332;SDS011;25748;46.670;14.272;2022-10-16T16:28:51;14.63;;;7.20;;
38332;SDS011;25748;46.670;14.272;2022-10-16T16:31:18;18.77;;;7.50;;
38332;SDS011;25748;46.670;14.272;2022-10-16T16:33:45;17.35;;;7.28;;
38332;SDS011;25748;46.670;14.272;2022-10-16T16:36:11;17.45;;;8.40;;
38332;SDS011;25748;46.670;14.272;2022-10-16T16:38:36;24.05;;;8.25;;
38332;SDS011;25748;46.670;14.272;2022-10-16T16:41:15;32.33;;;8.32;;
38332;SDS011;25748;46.670;14.272;2022-10-16T16:43:46;18.73;;;7.65;;
38332;SDS011;25748;46.670;14.272;2022-10-16T16:46:12;17.33;;;7.68;;
38332;SDS011;25748;46.670;14.272;2022-10-16T16:48:39;22.17;;;7.38;;
38332;SDS011;25748;46.670;14.272;2022-10-16T16:51:05;16.90;;;7.82;;
38332;SDS011;25748;46.670;14.272;2022-10-16T16:53:36;19.27;;;8.82;;
38332;SDS011;25748;46.670;14.272;2022-10-16T16:56:02;17.17;;;7.15;;
38332;SDS011;25748;46.670;14.272;2022-10-16T16:58:29;15.50;;;7.28;;
38332;SDS011;25748;46.670;14.272;2022-10-16T17:00:55;21.65;;;8.80;;
38332;SDS011;25748;46.670;14.272;2022-10-16T17:03:25;18.85;;;9.25;;